Time;durP1;ratioP1;P1;durP2;ratioP2;P2;SDS_P1;SDS_P2;PMS_P1;PMS_P2;Temp;Humidity;BMP_temperature;BMP_pressure;BME280_temperature;BME280_humidity;BME280_pressure;Samples;Min_cycle;Max_cycle;Signal;HPM_P1;HPM_P2
2023/07/07 00:01:41;;;;;;;0.10;0.10;;;17.40;99.90;;;;;;5023824;28;20252;-81
2023/07/07 00:04:06;;;;;;;0.10;0.10;;;17.50;99.90;;;;;;5021889;28;20702;-80
2023/07/07 00:06:32;;;;;;;0.10;0.10;;;17.50;99.90;;;;;;5024278;28;20225;-81
2023/07/07 00:08:59;;;;;;;0.10;0.10;;;17.30;99.90;;;;;;5023247;28;20232;-81
2023/07/07 00:11:25;;;;;;;0.10;0.10;;;17.30;99.90;;;;;;5022013;28;20201;-81
2023/07/07 00:13:52;;;;;;;0.10;0.10;;;17.40;99.90;;;;;;5021238;28;20194;-80
2023/07/07 00:16:20;;;;;;;0.10;0.10;;;17.40;99.90;;;;;;5022252;28;20202;-81
2023/07/07 00:18:46;;;;;;;0.10;0.10;;;17.40;99.90;;;;;;5022700;28;20182;-80
2023/07/07 00:21:12;;;;;;;0.10;0.10;;;17.40;99.90;;;;;;5022938;28;20210;-81
2023/07/07 00:23:38;;;;;;;0.10;0.10;;;17.30;99.90;;;;;;5022310;28;20240;-81
2023/07/07 00:26:09;;;;;;;0.10;0.10;;;16.90;99.90;;;;;;5020662;28;20293;-81
2023/07/07 00:28:34;;;;;;;0.10;0.10;;;16.90;99.90;;;;;;5022423;28;20275;-81
2023/07/07 00:31:00;;;;;;;0.10;0.10;;;17.00;99.90;;;;;;5022443;28;20178;-81
2023/07/07 00:33:26;;;;;;;0.00;0.00;;;17.00;99.90;;;;;;5022180;28;20205;-81
2023/07/07 00:35:52;;;;;;;0.10;0.10;;;17.10;99.90;;;;;;5022216;28;20214;-81
2023/07/07 00:38:18;;;;;;;0.10;0.10;;;17.10;99.90;;;;;;5022730;28;20203;-81
2023/07/07 00:40:44;;;;;;;0.10;0.10;;;17.10;99.90;;;;;;5021502;28;20213;-81
2023/07/07 00:43:15;;;;;;;0.10;0.10;;;17.10;99.90;;;;;;5022384;28;20559;-80
2023/07/07 00:45:41;;;;;;;0.10;0.10;;;17.10;99.90;;;;;;5021138;28;21095;-81
2023/07/07 00:48:12;;;;;;;0.10;0.10;;;17.10;99.90;;;;;;5022499;28;20245;-81
2023/07/07 00:50:44;;;;;;;0.00;0.00;;;17.00;99.90;;;;;;5021399;28;20325;-81
2023/07/07 00:53:09;;;;;;;0.10;0.10;;;16.90;99.90;;;;;;5021183;28;20587;-80
2023/07/07 00:55:48;;;;;;;0.10;0.10;;;17.00;99.90;;;;;;5022893;28;20175;-81
2023/07/07 00:58:18;;;;;;;0.10;0.10;;;17.00;99.90;;;;;;5020159;28;20190;-80
2023/07/07 01:00:49;;;;;;;0.10;0.10;;;16.80;99.90;;;;;;5020795;28;20185;-80
2023/07/07 01:03:19;;;;;;;0.10;0.10;;;16.80;99.90;;;;;;5020222;28;20182;-81
2023/07/07 01:05:47;;;;;;;0.10;0.10;;;16.60;99.90;;;;;;5022049;28;20592;-81
2023/07/07 01:08:13;;;;;;;0.10;0.10;;;16.70;99.90;;;;;;5022070;28;20187;-81
2023/07/07 01:10:38;;;;;;;0.10;0.10;;;16.80;99.90;;;;;;5021407;28;20201;-81
2023/07/07 01:13:04;;;;;;;0.10;0.10;;;16.60;99.90;;;;;;5019942;28;20205;-80
2023/07/07 01:15:36;;;;;;;0.10;0.10;;;16.50;99.90;;;;;;5018810;28;20205;-80
2023/07/07 01:18:17;;;;;;;0.10;0.10;;;16.40;99.90;;;;;;5021250;28;20193;-80
2023/07/07 01:21:01;;;;;;;0.10;0.10;;;16.50;99.90;;;;;;5021372;28;20178;-81
2023/07/07 01:23:51;;;;;;;0.10;0.10;;;16.60;99.90;;;;;;5021107;28;20178;-80
2023/07/07 01:26:41;;;;;;;0.10;0.10;;;16.40;99.90;;;;;;5020402;28;20236;-80
2023/07/07 01:29:39;;;;;;;0.10;0.10;;;16.40;99.90;;;;;;5033918;28;20222;-81
2023/07/07 01:32:09;;;;;;;0.10;0.10;;;16.50;99.90;;;;;;4962564;28;20243;-81
2023/07/07 01:34:36;;;;;;;0.10;0.10;;;16.50;99.90;;;;;;5018967;28;20179;-81
2023/07/07 01:37:01;;;;;;;0.10;0.10;;;16.50;99.90;;;;;;5020735;28;20237;-80
2023/07/07 01:39:27;;;;;;;0.10;0.10;;;16.50;99.90;;;;;;5022917;28;20200;-81
2023/07/07 01:41:57;;;;;;;0.10;0.10;;;16.60;99.90;;;;;;5021717;28;20187;-81
2023/07/07 01:44:32;;;;;;;0.10;0.10;;;16.50;99.90;;;;;;5019047;28;20197;-80
2023/07/07 01:47:11;;;;;;;0.10;0.10;;;16.50;99.90;;;;;;5020577;28;20206;-81
2023/07/07 01:49:45;;;;;;;0.10;0.10;;;16.40;99.90;;;;;;5020081;28;20650;-80
2023/07/07 01:52:22;;;;;;;0.10;0.10;;;16.40;99.90;;;;;;5021117;28;20674;-80
2023/07/07 01:55:08;;;;;;;0.10;0.10;;;16.40;99.90;;;;;;5023184;28;20248;-81
2023/07/07 01:57:34;;;;;;;0.07;0.07;;;16.40;99.90;;;;;;5016292;28;20237;-81
2023/07/07 02:00:01;;;;;;;0.10;0.10;;;16.40;99.90;;;;;;5020003;28;20487;-81
2023/07/07 02:02:26;;;;;;;0.10;0.10;;;16.40;99.90;;;;;;5019425;28;20276;-81
2023/07/07 02:04:52;;;;;;;0.10;0.10;;;16.40;99.90;;;;;;5022716;28;20636;-81
2023/07/07 02:07:18;;;;;;;0.10;0.10;;;16.30;99.90;;;;;;5021355;28;20210;-80
2023/07/07 02:09:43;;;;;;;0.00;0.00;;;16.20;99.90;;;;;;5025273;28;20178;-80
2023/07/07 02:12:09;;;;;;;0.10;0.10;;;16.20;99.90;;;;;;5025297;28;20212;-81
2023/07/07 02:14:35;;;;;;;0.10;0.10;;;16.20;99.90;;;;;;5025234;28;20665;-81
2023/07/07 02:17:00;;;;;;;0.10;0.10;;;16.20;99.90;;;;;;5024726;28;20202;-80
2023/07/07 02:19:27;;;;;;;0.10;0.10;;;16.20;99.90;;;;;;5025046;28;20693;-81
2023/07/07 02:21:52;;;;;;;0.10;0.10;;;16.20;99.90;;;;;;5022854;28;21206;-80
2023/07/07 02:24:18;;;;;;;0.10;0.10;;;16.20;99.90;;;;;;5024177;28;20186;-80
2023/07/07 02:26:43;;;;;;;0.10;0.10;;;16.00;99.90;;;;;;5026382;28;20222;-80
2023/07/07 02:29:09;;;;;;;0.10;0.10;;;16.00;99.90;;;;;;5024543;28;20189;-81
2023/07/07 02:31:34;;;;;;;0.10;0.10;;;15.90;99.90;;;;;;5022150;28;20190;-80
2023/07/07 02:34:00;;;;;;;0.10;0.10;;;15.90;99.90;;;;;;5026693;28;20269;-81
2023/07/07 02:36:25;;;;;;;0.10;0.10;;;15.90;99.90;;;;;;5025622;28;20272;-81
2023/07/07 02:38:53;;;;;;;0.10;0.10;;;16.00;99.90;;;;;;5025547;28;20183;-81
2023/07/07 02:41:19;;;;;;;0.10;0.10;;;16.00;99.90;;;;;;5024070;28;20253;-80
2023/07/07 02:43:45;;;;;;;0.10;0.10;;;16.10;99.90;;;;;;5023652;28;20191;-80
2023/07/07 02:46:10;;;;;;;0.10;0.10;;;15.80;99.90;;;;;;5023886;28;20214;-80
2023/07/07 02:48:36;;;;;;;0.10;0.10;;;15.80;99.90;;;;;;5023650;28;20190;-81
2023/07/07 02:51:04;;;;;;;0.10;0.10;;;15.90;99.90;;;;;;5023818;28;20190;-81
2023/07/07 02:53:32;;;;;;;0.10;0.10;;;15.90;99.90;;;;;;5026043;28;20278;-80
2023/07/07 02:55:58;;;;;;;0.10;0.10;;;16.00;99.90;;;;;;5024824;28;20688;-81
2023/07/07 02:58:25;;;;;;;0.10;0.10;;;15.90;99.90;;;;;;5023607;28;20230;-81
2023/07/07 03:00:50;;;;;;;0.10;0.10;;;15.90;99.90;;;;;;5022289;28;20232;-81
2023/07/07 03:03:17;;;;;;;0.10;0.10;;;15.90;99.90;;;;;;5025425;28;20210;-81
2023/07/07 03:05:45;;;;;;;0.10;0.10;;;15.80;99.90;;;;;;5022203;28;20219;-80
2023/07/07 03:08:11;;;;;;;0.10;0.10;;;15.70;99.90;;;;;;5026078;28;20799;-81
2023/07/07 03:10:38;;;;;;;0.10;0.10;;;15.60;99.90;;;;;;5024398;28;20186;-80
2023/07/07 03:13:04;;;;;;;0.10;0.10;;;15.40;99.90;;;;;;5023333;28;20246;-81
2023/07/07 03:15:38;;;;;;;0.10;0.10;;;15.40;99.90;;;;;;5022410;28;20195;-81
2023/07/07 03:18:06;;;;;;;0.10;0.10;;;15.50;99.90;;;;;;5023144;28;20666;-81
2023/07/07 03:20:32;;;;;;;0.10;0.10;;;15.60;99.90;;;;;;5023698;28;20257;-80
2023/07/07 03:22:58;;;;;;;0.10;0.10;;;15.70;99.90;;;;;;5024562;28;20274;-81
2023/07/07 03:25:26;;;;;;;0.10;0.10;;;15.70;99.90;;;;;;5025955;28;20274;-81
2023/07/07 03:27:51;;;;;;;0.10;0.10;;;15.70;99.90;;;;;;5024799;28;20187;-80
2023/07/07 03:30:17;;;;;;;0.10;0.10;;;15.60;99.90;;;;;;5024538;28;20198;-81
2023/07/07 03:32:43;;;;;;;0.10;0.10;;;15.70;99.90;;;;;;5021784;28;20210;-80
2023/07/07 03:35:08;;;;;;;0.10;0.10;;;15.60;99.90;;;;;;5025543;28;20194;-80
2023/07/07 03:37:36;;;;;;;0.10;0.10;;;15.80;99.90;;;;;;5024568;28;20214;-80
2023/07/07 03:40:01;;;;;;;0.10;0.10;;;15.90;99.90;;;;;;5023995;28;20174;-80
2023/07/07 03:42:28;;;;;;;0.10;0.10;;;15.90;99.90;;;;;;5022910;28;20193;-81
2023/07/07 03:44:54;;;;;;;0.10;0.10;;;16.30;99.90;;;;;;5020156;28;20247;-81
2023/07/07 03:47:20;;;;;;;0.10;0.10;;;17.10;99.90;;;;;;5023416;28;20437;-80
2023/07/07 03:49:47;;;;;;;0.10;0.10;;;17.60;99.90;;;;;;5023013;28;20187;-81
2023/07/07 03:52:12;;;;;;;0.10;0.10;;;18.30;99.90;;;;;;5022212;28;20186;-80
2023/07/07 03:54:40;;;;;;;0.10;0.10;;;18.70;99.90;;;;;;5024130;28;20189;-80
2023/07/07 03:57:07;;;;;;;0.10;0.10;;;19.20;99.90;;;;;;5023653;28;21032;-81
2023/07/07 03:59:33;;;;;;;0.10;0.10;;;19.80;99.90;;;;;;5021741;28;20189;-80
2023/07/07 04:01:58;;;;;;;0.10;0.10;;;20.40;99.90;;;;;;5022123;28;20553;-81
2023/07/07 04:04:25;;;;;;;0.10;0.10;;;20.90;99.90;;;;;;5022309;28;20182;-81
2023/07/07 04:06:54;;;;;;;0.10;0.10;;;21.10;99.90;;;;;;5023116;28;20213;-81
2023/07/07 04:09:20;;;;;;;0.10;0.10;;;21.60;99.90;;;;;;5026792;28;20264;-80
2023/07/07 04:11:46;;;;;;;0.10;0.10;;;22.10;99.90;;;;;;5025061;28;20293;-80
2023/07/07 04:14:11;;;;;;;0.10;0.10;;;22.60;99.90;;;;;;5023730;28;20284;-81
2023/07/07 04:16:37;;;;;;;0.10;0.10;;;23.10;99.90;;;;;;5024949;28;20854;-81
2023/07/07 04:19:02;;;;;;;0.10;0.10;;;23.60;99.90;;;;;;5023194;28;20189;-81
2023/07/07 04:21:29;;;;;;;0.10;0.10;;;24.00;99.90;;;;;;5022555;28;20198;-80
2023/07/07 04:23:56;;;;;;;0.10;0.10;;;24.10;99.90;;;;;;5025564;28;20353;-81
2023/07/07 04:26:24;;;;;;;0.10;0.10;;;24.20;99.90;;;;;;5025449;28;20216;-81
2023/07/07 04:28:51;;;;;;;0.10;0.10;;;23.70;99.90;;;;;;5022790;28;20191;-81
2023/07/07 04:31:17;;;;;;;0.10;0.10;;;22.50;99.90;;;;;;5019400;28;20200;-81
2023/07/07 04:33:43;;;;;;;0.10;0.10;;;21.40;99.90;;;;;;5019364;28;20585;-81
2023/07/07 04:36:10;;;;;;;0.10;0.10;;;20.70;99.90;;;;;;5022268;28;20203;-81
2023/07/07 04:38:36;;;;;;;0.10;0.10;;;20.10;99.90;;;;;;5023690;28;20187;-81
2023/07/07 04:41:05;;;;;;;0.10;0.10;;;19.80;99.90;;;;;;5022261;28;20179;-81
2023/07/07 04:43:32;;;;;;;0.10;0.10;;;19.60;99.90;;;;;;5024396;28;20202;-80
2023/07/07 04:45:58;;;;;;;0.10;0.10;;;19.20;99.90;;;;;;5020361;28;20209;-81
2023/07/07 04:48:24;;;;;;;0.10;0.10;;;19.10;99.90;;;;;;5020931;28;20236;-81
2023/07/07 04:50:51;;;;;;;0.10;0.10;;;19.00;99.90;;;;;;5023487;28;20656;-81
2023/07/07 04:53:16;;;;;;;0.10;0.10;;;18.90;99.90;;;;;;5022991;28;20195;-81
2023/07/07 04:55:43;;;;;;;0.10;0.10;;;18.70;99.90;;;;;;5020744;28;20210;-81
2023/07/07 04:58:09;;;;;;;0.10;0.10;;;18.60;99.90;;;;;;5020312;28;20666;-81
2023/07/07 05:00:34;;;;;;;0.10;0.10;;;18.60;99.90;;;;;;5022078;28;20281;-81
2023/07/07 05:03:00;;;;;;;0.10;0.10;;;18.50;99.90;;;;;;5022053;28;20191;-81
2023/07/07 05:05:25;;;;;;;0.10;0.10;;;18.40;99.90;;;;;;5023781;28;20194;-81
2023/07/07 05:07:51;;;;;;;0.10;0.10;;;18.50;99.90;;;;;;5024059;28;20269;-81
2023/07/07 05:10:16;;;;;;;0.10;0.10;;;18.50;99.90;;;;;;5020698;28;20239;-81
2023/07/07 05:12:42;;;;;;;0.10;0.10;;;18.50;99.90;;;;;;5020931;28;20644;-81
2023/07/07 05:15:08;;;;;;;0.10;0.10;;;18.50;99.90;;;;;;5022057;28;20206;-81
2023/07/07 05:17:33;;;;;;;0.10;0.10;;;18.50;99.90;;;;;;5017954;28;20226;-81
2023/07/07 05:19:59;;;;;;;0.10;0.10;;;18.60;99.90;;;;;;5024726;28;20674;-81
2023/07/07 05:22:24;;;;;;;0.10;0.10;;;18.60;99.90;;;;;;5021148;28;20174;-81
2023/07/07 05:24:50;;;;;;;0.10;0.10;;;18.60;99.90;;;;;;5020993;28;20545;-81
2023/07/07 05:27:15;;;;;;;0.10;0.10;;;18.60;99.90;;;;;;5022060;28;20551;-81
2023/07/07 05:29:41;;;;;;;0.10;0.10;;;18.70;99.90;;;;;;5019753;28;20662;-82
2023/07/07 05:32:07;;;;;;;0.10;0.10;;;18.80;99.90;;;;;;5021845;28;20652;-81
2023/07/07 05:34:32;;;;;;;0.10;0.10;;;18.80;99.90;;;;;;5022370;28;20270;-81
2023/07/07 05:36:58;;;;;;;0.10;0.10;;;18.80;99.90;;;;;;5019271;28;20215;-81
2023/07/07 05:39:23;;;;;;;0.10;0.10;;;18.90;99.90;;;;;;5023255;28;20201;-81
2023/07/07 05:41:49;;;;;;;0.10;0.10;;;18.90;99.90;;;;;;5022746;28;20185;-81
2023/07/07 05:44:14;;;;;;;0.10;0.10;;;19.10;99.90;;;;;;5021563;28;20193;-81
2023/07/07 05:46:40;;;;;;;0.10;0.10;;;18.90;99.90;;;;;;5019430;28;20221;-81
2023/07/07 05:49:05;;;;;;;0.10;0.10;;;19.10;99.90;;;;;;5021303;28;20208;-81
2023/07/07 05:51:31;;;;;;;0.10;0.10;;;19.30;99.90;;;;;;5019595;28;20217;-81
2023/07/07 05:53:56;;;;;;;0.10;0.10;;;19.40;99.90;;;;;;5021960;28;20192;-82
2023/07/07 05:56:25;;;;;;;0.10;0.10;;;19.50;99.90;;;;;;5022131;28;20216;-82
2023/07/07 05:58:54;;;;;;;0.10;0.10;;;19.60;99.90;;;;;;5022052;28;20193;-85
2023/07/07 06:01:19;;;;;;;0.10;0.10;;;19.70;99.90;;;;;;5018924;28;20735;-84
2023/07/07 06:03:45;;;;;;;0.10;0.10;;;19.60;99.90;;;;;;5016107;28;20278;-85
2023/07/07 06:06:11;;;;;;;0.10;0.10;;;19.70;99.90;;;;;;5020117;28;20702;-85
2023/07/07 06:08:37;;;;;;;0.10;0.10;;;19.90;99.90;;;;;;5020652;28;20186;-84
2023/07/07 06:11:03;;;;;;;0.10;0.10;;;20.00;99.90;;;;;;5018995;28;20198;-85
2023/07/07 06:13:28;;;;;;;0.10;0.10;;;20.00;99.90;;;;;;5017196;28;20181;-85
2023/07/07 06:15:56;;;;;;;0.10;0.10;;;20.00;99.90;;;;;;5019021;28;20298;-85
2023/07/07 06:18:22;;;;;;;0.10;0.10;;;19.90;99.90;;;;;;5018596;28;20277;-84
2023/07/07 06:20:51;;;;;;;0.10;0.10;;;20.20;99.90;;;;;;5010654;28;20763;-82
2023/07/07 06:23:17;;;;;;;0.10;0.10;;;20.40;99.90;;;;;;5010698;28;20182;-82
2023/07/07 06:25:42;;;;;;;0.10;0.10;;;20.70;99.90;;;;;;5019198;28;20210;-82
2023/07/07 06:28:08;;;;;;;0.10;0.10;;;20.80;99.90;;;;;;5016200;28;20183;-82
2023/07/07 06:30:34;;;;;;;0.10;0.10;;;21.00;99.90;;;;;;5019828;28;20542;-82
2023/07/07 06:32:59;;;;;;;0.10;0.10;;;21.10;99.90;;;;;;5028236;28;20273;-82
2023/07/07 06:35:26;;;;;;;0.10;0.10;;;21.00;99.90;;;;;;5017140;28;20189;-82
2023/07/07 06:37:51;;;;;;;0.10;0.10;;;21.10;99.90;;;;;;5019318;28;20210;-82
2023/07/07 06:40:17;;;;;;;0.10;0.10;;;21.30;99.90;;;;;;5016154;28;20892;-82
2023/07/07 06:42:42;;;;;;;0.10;0.10;;;21.40;99.90;;;;;;5020030;28;20187;-83
2023/07/07 06:45:08;;;;;;;0.10;0.10;;;21.20;99.90;;;;;;5019298;28;20222;-82
2023/07/07 06:47:34;;;;;;;0.10;0.10;;;21.50;99.90;;;;;;5023723;28;20214;-82
2023/07/07 06:49:59;;;;;;;0.10;0.10;;;21.70;99.90;;;;;;5019766;28;20183;-82
2023/07/07 06:52:25;;;;;;;0.10;0.10;;;21.80;99.90;;;;;;5020048;28;20197;-82
2023/07/07 06:54:52;;;;;;;0.10;0.10;;;21.80;99.90;;;;;;5017353;28;20194;-82
2023/07/07 06:57:18;;;;;;;0.10;0.10;;;22.00;99.90;;;;;;5019654;28;20214;-82
2023/07/07 06:59:43;;;;;;;0.10;0.10;;;21.80;99.90;;;;;;5022697;28;20842;-82
2023/07/07 07:02:13;;;;;;;0.10;0.10;;;22.10;99.90;;;;;;5031952;28;20570;-82
2023/07/07 07:04:39;;;;;;;0.10;0.10;;;22.50;99.90;;;;;;5022784;28;20320;-82
2023/07/07 07:07:06;;;;;;;0.10;0.10;;;22.70;99.90;;;;;;5023943;28;20346;-82
2023/07/07 07:09:31;;;;;;;0.10;0.10;;;22.90;99.90;;;;;;5022233;28;20244;-82
2023/07/07 07:11:57;;;;;;;0.10;0.10;;;22.80;99.90;;;;;;5018120;28;20182;-82
2023/07/07 07:14:22;;;;;;;0.10;0.10;;;23.20;99.90;;;;;;5023713;28;20198;-82
2023/07/07 07:16:48;;;;;;;0.10;0.10;;;23.40;99.90;;;;;;5020408;28;20297;-82
2023/07/07 07:19:13;;;;;;;0.10;0.10;;;23.20;99.90;;;;;;5022396;28;20192;-82
2023/07/07 07:21:39;;;;;;;0.10;0.10;;;23.10;99.90;;;;;;5017920;28;20175;-82
2023/07/07 07:24:05;;;;;;;0.10;0.10;;;23.50;99.90;;;;;;5025838;28;20182;-81
2023/07/07 07:26:30;;;;;;;0.10;0.10;;;23.10;99.90;;;;;;5020464;28;20198;-82
2023/07/07 07:28:56;;;;;;;0.10;0.10;;;23.20;99.90;;;;;;5025441;28;20745;-82
2023/07/07 07:31:22;;;;;;;0.10;0.10;;;23.50;99.90;;;;;;5024419;28;20183;-82
2023/07/07 07:33:53;;;;;;;0.10;0.10;;;23.50;99.90;;;;;;5025079;28;20190;-82
2023/07/07 07:36:19;;;;;;;0.10;0.10;;;23.60;99.90;;;;;;5020203;28;20269;-84
2023/07/07 07:38:45;;;;;;;0.10;0.10;;;24.00;99.90;;;;;;5021339;28;20199;-83
2023/07/07 07:41:10;;;;;;;0.10;0.10;;;24.10;99.90;;;;;;5021106;28;20182;-82
2023/07/07 07:43:36;;;;;;;0.10;0.10;;;24.20;99.90;;;;;;5021565;28;20188;-82
2023/07/07 07:46:01;;;;;;;0.10;0.10;;;24.50;99.90;;;;;;5019657;28;20228;-82
2023/07/07 07:48:27;;;;;;;0.10;0.10;;;24.70;99.90;;;;;;5025077;28;20193;-82
2023/07/07 07:50:52;;;;;;;0.10;0.10;;;24.00;99.90;;;;;;5023481;28;20194;-82
2023/07/07 07:53:19;;;;;;;0.10;0.10;;;24.30;99.90;;;;;;5024078;28;20276;-82
2023/07/07 07:55:44;;;;;;;0.10;0.10;;;24.50;99.90;;;;;;5023259;28;20268;-82
2023/07/07 07:58:10;;;;;;;0.10;0.10;;;24.70;99.90;;;;;;5022451;28;20541;-82
2023/07/07 08:00:36;;;;;;;0.10;0.10;;;24.90;99.90;;;;;;5023297;28;20182;-82
2023/07/07 08:03:01;;;;;;;0.10;0.10;;;25.20;99.90;;;;;;5023580;28;20186;-82
2023/07/07 08:05:27;;;;;;;0.10;0.10;;;25.50;99.90;;;;;;5023586;28;20202;-82
2023/07/07 08:07:53;;;;;;;0.10;0.10;;;25.10;99.90;;;;;;5023000;28;20174;-82
2023/07/07 08:10:18;;;;;;;0.10;0.10;;;25.20;99.90;;;;;;5019785;28;20202;-82
2023/07/07 08:12:44;;;;;;;0.10;0.10;;;25.40;99.90;;;;;;5024491;28;20274;-82
2023/07/07 08:15:11;;;;;;;0.10;0.10;;;25.70;99.90;;;;;;5023968;28;20652;-82
2023/07/07 08:17:37;;;;;;;0.10;0.10;;;25.80;99.90;;;;;;5023462;28;20218;-82
2023/07/07 08:20:03;;;;;;;0.10;0.10;;;25.40;99.90;;;;;;5024920;28;20570;-82
2023/07/07 08:22:28;;;;;;;0.10;0.10;;;24.90;99.90;;;;;;5023007;28;20564;-82
2023/07/07 08:24:56;;;;;;;0.10;0.10;;;25.20;99.90;;;;;;5025175;28;20181;-82
2023/07/07 08:27:24;;;;;;;0.10;0.10;;;25.60;99.90;;;;;;5020532;28;20210;-82
2023/07/07 08:29:50;;;;;;;0.10;0.10;;;25.50;99.90;;;;;;5021156;28;20190;-82
2023/07/07 08:32:21;;;;;;;0.10;0.10;;;25.60;99.90;;;;;;5022876;28;20715;-82
2023/07/07 08:34:47;;;;;;;0.10;0.10;;;25.70;99.90;;;;;;5020177;28;20213;-82
2023/07/07 08:37:12;;;;;;;0.10;0.10;;;25.60;99.90;;;;;;5022806;28;20233;-82
2023/07/07 08:39:38;;;;;;;0.10;0.10;;;25.60;99.90;;;;;;5024539;28;21217;-82
2023/07/07 08:42:23;;;;;;;0.10;0.10;;;26.00;99.90;;;;;;5012675;28;20204;-82
2023/07/07 08:44:49;;;;;;;0.10;0.10;;;26.30;99.90;;;;;;5017646;28;20183;-82
2023/07/07 08:47:41;;;;;;;0.10;0.10;;;26.30;99.90;;;;;;5024988;28;20964;-82
2023/07/07 08:50:22;;;;;;;0.10;0.10;;;26.30;99.90;;;;;;5022831;28;20182;-82
2023/07/07 08:53:07;;;;;;;0.10;0.10;;;26.30;99.90;;;;;;5016627;28;20519;-81
2023/07/07 08:55:45;;;;;;;0.10;0.10;;;26.50;99.90;;;;;;5014963;28;20208;-82
2023/07/07 08:58:20;;;;;;;0.10;0.10;;;26.80;99.90;;;;;;5021702;28;20660;-82
2023/07/07 09:00:57;;;;;;;0.10;0.10;;;26.70;99.90;;;;;;5020699;28;20643;-82
2023/07/07 09:04:07;;;;;;;0.10;0.10;;;26.70;99.90;;;;;;5023243;28;20891;-82
2023/07/07 09:06:51;;;;;;;0.10;0.10;;;26.70;99.90;;;;;;5016825;28;20230;-82
2023/07/07 09:09:35;;;;;;;0.10;0.10;;;26.80;99.90;;;;;;5022138;28;20195;-82
2023/07/07 09:12:45;;;;;;;0.10;0.10;;;26.50;99.90;;;;;;5023001;28;20186;-81
2023/07/07 09:15:21;;;;;;;0.10;0.10;;;26.60;99.90;;;;;;5020078;28;20198;-81
2023/07/07 09:17:52;;;;;;;0.10;0.10;;;26.40;99.90;;;;;;5022745;28;20292;-81
2023/07/07 09:20:20;;;;;;;0.10;0.10;;;26.80;99.90;;;;;;5020423;28;20671;-82
2023/07/07 09:22:52;;;;;;;0.10;0.10;;;27.20;99.90;;;;;;5035827;28;21197;-82
2023/07/07 09:25:31;;;;;;;0.10;0.10;;;27.50;99.90;;;;;;5019399;28;20187;-82
2023/07/07 09:28:00;;;;;;;0.10;0.10;;;27.30;99.90;;;;;;5020056;28;20594;-82
2023/07/07 09:30:44;;;;;;;0.10;0.10;;;27.30;99.90;;;;;;5019489;28;20602;-81
2023/07/07 09:33:19;;;;;;;0.10;0.10;;;27.00;99.90;;;;;;5021305;28;20648;-82
2023/07/07 09:36:00;;;;;;;0.10;0.10;;;27.30;99.90;;;;;;5017481;28;20179;-82
2023/07/07 09:39:20;;;;;;;0.10;0.10;;;27.40;99.90;;;;;;5021526;28;20670;-82
2023/07/07 09:42:02;;;;;;;0.10;0.10;;;27.20;99.90;;;;;;4957688;28;20563;-82
2023/07/07 09:44:46;;;;;;;0.13;0.13;;;27.40;99.90;;;;;;5029732;28;20341;-82
2023/07/07 09:47:21;;;;;;;0.10;0.10;;;27.10;99.90;;;;;;5020667;28;20223;-82
2023/07/07 09:50:09;;;;;;;0.10;0.10;;;27.40;99.90;;;;;;5010298;28;20193;-81
2023/07/07 09:52:47;;;;;;;0.10;0.10;;;27.20;99.90;;;;;;5014623;28;20179;-82
2023/07/07 09:55:18;;;;;;;0.10;0.10;;;27.80;99.90;;;;;;5017860;28;20273;-82
2023/07/07 09:57:58;;;;;;;0.10;0.10;;;28.10;99.90;;;;;;5032796;28;20223;-82
2023/07/07 10:00:26;;;;;;;0.10;0.10;;;28.20;99.90;;;;;;5019533;28;20178;-82
2023/07/07 10:02:52;;;;;;;0.10;0.10;;;28.10;99.90;;;;;;5018052;28;20771;-81
2023/07/07 10:05:22;;;;;;;0.10;0.10;;;28.50;99.90;;;;;;5016916;28;20255;-82
2023/07/07 10:07:49;;;;;;;0.10;0.10;;;28.70;99.90;;;;;;5016971;28;20216;-81
2023/07/07 10:10:14;;;;;;;0.10;0.10;;;28.20;99.90;;;;;;5020513;28;20217;-81
2023/07/07 10:12:41;;;;;;;0.10;0.10;;;28.10;99.90;;;;;;5016032;28;20915;-81
2023/07/07 10:15:28;;;;;;;0.10;0.10;;;28.10;99.90;;;;;;5022318;28;20186;-81
2023/07/07 10:18:02;;;;;;;0.10;0.10;;;28.10;99.90;;;;;;5013136;28;20305;-82
2023/07/07 10:20:28;;;;;;;0.10;0.10;;;28.00;99.90;;;;;;5020448;28;20946;-82
2023/07/07 10:22:53;;;;;;;0.10;0.10;;;28.10;99.90;;;;;;5015946;28;20186;-82
2023/07/07 10:25:19;;;;;;;0.10;0.10;;;27.80;99.90;;;;;;5022343;28;20572;-82
2023/07/07 10:27:52;;;;;;;0.10;0.10;;;28.20;99.90;;;;;;5028021;28;20206;-81
2023/07/07 10:30:17;;;;;;;0.10;0.10;;;28.70;99.90;;;;;;5019069;28;20189;-82
2023/07/07 10:32:43;;;;;;;0.10;0.10;;;28.70;99.90;;;;;;5021911;28;20186;-81
2023/07/07 10:35:15;;;;;;;0.10;0.10;;;29.30;99.90;;;;;;5024415;28;20190;-82
2023/07/07 10:37:40;;;;;;;0.10;0.10;;;29.10;99.90;;;;;;5023906;28;20242;-82
2023/07/07 10:40:14;;;;;;;0.10;0.10;;;29.30;99.90;;;;;;5024580;28;20240;-82
2023/07/07 10:42:39;;;;;;;0.10;0.10;;;29.40;99.90;;;;;;5019959;28;20222;-82
2023/07/07 10:45:06;;;;;;;0.10;0.10;;;29.60;99.90;;;;;;5038186;28;20624;-82
2023/07/07 10:47:36;;;;;;;0.10;0.10;;;29.60;99.90;;;;;;5023848;28;20198;-82
2023/07/07 10:50:06;;;;;;;0.10;0.10;;;29.30;99.90;;;;;;5023257;28;20657;-82
2023/07/07 10:52:32;;;;;;;0.10;0.10;;;29.00;99.90;;;;;;5022251;28;20730;-82
2023/07/07 10:55:08;;;;;;;0.10;0.10;;;29.00;99.90;;;;;;5023432;28;20198;-82
2023/07/07 10:58:01;;;;;;;0.10;0.10;;;28.90;99.90;;;;;;5024267;28;20244;-82
2023/07/07 11:00:45;;;;;;;0.10;0.10;;;29.20;99.90;;;;;;5022682;28;20171;-82
2023/07/07 11:03:50;;;;;;;0.10;0.10;;;28.50;99.90;;;;;;5022738;28;20183;-82
2023/07/07 11:06:42;;;;;;;0.10;0.10;;;28.40;99.90;;;;;;5021212;28;20379;-82
2023/07/07 11:09:50;;;;;;;0.10;0.10;;;29.00;99.90;;;;;;5030298;28;20771;-82
2023/07/07 11:12:47;;;;;;;0.10;0.10;;;29.70;99.90;;;;;;5025686;28;20191;-82
2023/07/07 11:15:15;;;;;;;0.10;0.10;;;30.20;99.90;;;;;;5025950;28;20274;-82
2023/07/07 11:17:59;;;;;;;0.10;0.10;;;30.40;99.90;;;;;;5026643;28;20215;-82
2023/07/07 11:20:32;;;;;;;0.10;0.10;;;29.70;99.90;;;;;;5025603;28;20186;-82
2023/07/07 11:23:13;;;;;;;0.10;0.10;;;29.90;99.90;;;;;;5023950;28;20405;-82
2023/07/07 11:26:04;;;;;;;0.10;0.10;;;30.30;99.90;;;;;;5024493;28;20187;-82
2023/07/07 11:28:47;;;;;;;1.08;1.08;;;30.00;99.90;;;;;;5031709;28;20191;-82
2023/07/07 11:31:19;;;;;;;0.10;0.10;;;30.50;99.90;;;;;;5020993;28;20606;-82
2023/07/07 11:34:00;;;;;;;0.10;0.10;;;30.90;99.90;;;;;;5023116;28;20640;-82
2023/07/07 11:36:43;;;;;;;0.10;0.10;;;30.50;99.90;;;;;;5021996;28;20547;-82
2023/07/07 11:39:22;;;;;;;0.10;0.10;;;30.80;99.90;;;;;;5023192;28;20191;-83
2023/07/07 11:42:28;;;;;;;0.10;0.10;;;31.00;99.90;;;;;;5024708;28;20179;-82
2023/07/07 11:45:18;;;;;;;0.10;0.10;;;31.20;99.90;;;;;;5024116;28;20182;-82
2023/07/07 11:48:27;;;;;;;0.10;0.10;;;31.00;99.90;;;;;;5023027;28;20741;-82
2023/07/07 11:51:14;;;;;;;0.10;0.10;;;31.00;99.90;;;;;;5014825;28;20270;-82
2023/07/07 11:53:45;;;;;;;0.10;0.10;;;31.30;99.90;;;;;;5024576;28;20209;-82
2023/07/07 11:56:36;;;;;;;0.10;0.10;;;30.80;99.90;;;;;;5021415;28;20212;-82
2023/07/07 11:59:29;;;;;;;0.10;0.10;;;30.90;99.90;;;;;;5022189;28;20191;-82
2023/07/07 12:01:57;;;;;;;0.10;0.10;;;31.20;99.90;;;;;;5022850;28;20254;-82
2023/07/07 12:04:54;;;;;;;0.17;0.17;;;31.00;99.90;;;;;;5024087;28;20174;-82
2023/07/07 12:07:36;;;;;;;0.10;0.10;;;31.30;99.90;;;;;;5015429;28;20256;-82
2023/07/07 12:10:21;;;;;;;0.10;0.10;;;31.70;99.90;;;;;;5024379;28;20244;-82
2023/07/07 12:12:55;;;;;;;0.10;0.10;;;32.00;99.90;;;;;;5024672;28;20186;-81
2023/07/07 12:15:28;;;;;;;0.10;0.10;;;32.10;99.90;;;;;;5019851;28;20182;-80
2023/07/07 12:18:22;;;;;;;0.10;0.10;;;32.10;99.90;;;;;;5025389;28;20672;-81
2023/07/07 12:21:03;;;;;;;0.10;0.10;;;32.00;99.90;;;;;;5021649;28;21217;-82
2023/07/07 12:23:32;;;;;;;0.10;0.10;;;31.70;99.90;;;;;;5021471;28;20244;-81
2023/07/07 12:26:17;;;;;;;0.10;0.10;;;31.40;99.90;;;;;;5023381;28;20206;-81
2023/07/07 12:28:48;;;;;;;0.10;0.10;;;31.40;99.90;;;;;;5023742;28;20185;-81
2023/07/07 12:31:14;;;;;;;0.10;0.10;;;31.60;99.90;;;;;;5020705;28;20186;-81
2023/07/07 12:33:41;;;;;;;0.10;0.10;;;31.60;99.90;;;;;;5022500;28;20182;-82
2023/07/07 12:36:08;;;;;;;0.10;0.10;;;31.50;99.90;;;;;;5025286;28;20206;-81
2023/07/07 12:38:35;;;;;;;0.10;0.10;;;31.50;99.90;;;;;;5021218;28;20182;-82
2023/07/07 12:41:10;;;;;;;0.10;0.10;;;31.60;99.90;;;;;;5022769;28;20660;-81
2023/07/07 12:43:43;;;;;;;0.10;0.10;;;31.80;99.90;;;;;;5026888;28;20186;-81
2023/07/07 12:46:29;;;;;;;0.10;0.10;;;32.00;99.90;;;;;;5024555;28;20213;-81
2023/07/07 12:49:04;;;;;;;0.10;0.10;;;32.10;99.90;;;;;;5024517;28;20262;-82
2023/07/07 12:51:32;;;;;;;0.10;0.10;;;30.90;99.90;;;;;;5018744;28;20576;-81
2023/07/07 12:53:58;;;;;;;0.65;0.65;;;30.10;99.90;;;;;;5019486;28;20228;-82
2023/07/07 12:56:28;;;;;;;0.10;0.10;;;30.70;99.90;;;;;;5025525;28;20210;-81
2023/07/07 12:58:59;;;;;;;0.10;0.10;;;30.30;99.90;;;;;;5022660;28;20666;-81
2023/07/07 13:01:39;;;;;;;0.10;0.10;;;30.30;99.90;;;;;;5016099;28;20248;-82
2023/07/07 13:04:07;;;;;;;0.10;0.10;;;31.00;99.90;;;;;;5020784;28;20242;-84
2023/07/07 13:06:41;;;;;;;0.10;0.10;;;31.40;99.90;;;;;;5021769;28;20225;-82